Time;durP1;ratioP1;P1;durP2;ratioP2;P2;SDS_P1;SDS_P2;PMS_P1;PMS_P2;Temp;Humidity;BMP_temperature;BMP_pressure;BME280_temperature;BME280_humidity;BME280_pressure;Samples;Min_cycle;Max_cycle;Signal;HPM_P1;HPM_P2
2022/12/05 00:01:35;;;;;;;61.25;26.20;;;;;;;9.86;100.00;101637.69;5015298;28;20043;-51
2022/12/05 00:04:04;;;;;;;60.15;25.92;;;;;;;9.60;100.00;101644.09;5013575;28;20108;-54
2022/12/05 00:06:31;;;;;;;59.75;25.88;;;;;;;9.32;100.00;101641.78;5015127;28;20038;-55
2022/12/05 00:08:58;;;;;;;57.25;25.90;;;;;;;9.62;100.00;101635.94;5015117;28;20101;-55
2022/12/05 00:11:25;;;;;;;53.58;24.30;;;;;;;9.37;100.00;101649.31;5015118;28;20037;-55
2022/12/05 00:13:53;;;;;;;60.33;26.23;;;;;;;9.57;100.00;101640.94;5014438;28;20026;-56
2022/12/05 00:16:21;;;;;;;60.72;26.23;;;;;;;9.41;100.00;101639.09;5014997;28;20038;-54
2022/12/05 00:18:47;;;;;;;54.45;22.70;;;;;;;9.76;100.00;101643.22;5015260;28;20058;-53
2022/12/05 00:21:18;;;;;;;64.03;26.20;;;;;;;9.97;100.00;101646.38;5015573;28;20030;-52
2022/12/05 00:23:44;;;;;;;59.63;26.83;;;;;;;10.31;100.00;101647.91;5013368;28;20102;-49
2022/12/05 00:26:10;;;;;;;67.85;26.65;;;;;;;10.24;100.00;101639.75;5015166;28;20042;-56
2022/12/05 00:28:36;;;;;;;62.10;25.58;;;;;;;10.18;100.00;101640.44;5012570;28;20026;-53
2022/12/05 00:31:03;;;;;;;63.87;25.43;;;;;;;10.07;100.00;101638.16;5014651;28;20041;-53
2022/12/05 00:33:29;;;;;;;58.75;24.52;;;;;;;10.24;100.00;101636.25;5014961;28;20065;-56
2022/12/05 00:35:54;;;;;;;63.77;25.07;;;;;;;10.15;100.00;101632.78;5012594;28;20034;-54
2022/12/05 00:38:20;;;;;;;62.40;26.30;;;;;;;10.38;100.00;101640.88;5014731;28;20034;-54
2022/12/05 00:40:45;;;;;;;58.83;25.67;;;;;;;10.35;100.00;101635.84;5014249;28;20038;-54
2022/12/05 00:43:10;;;;;;;57.87;25.40;;;;;;;10.52;100.00;101633.16;5014067;28;20057;-54
2022/12/05 00:45:36;;;;;;;60.75;24.95;;;;;;;10.35;100.00;101633.19;5014538;28;20049;-55
2022/12/05 00:48:02;;;;;;;51.23;19.87;;;;;;;10.17;100.00;101628.94;5014727;28;20042;-54
2022/12/05 00:50:27;;;;;;;46.93;19.67;;;;;;;9.93;100.00;101634.38;5014592;28;20102;-54
2022/12/05 00:52:52;;;;;;;56.73;23.97;;;;;;;10.37;100.00;101633.84;5014327;28;20095;-53
2022/12/05 00:55:18;;;;;;;56.40;26.30;;;;;;;9.97;100.00;101628.50;5014677;28;20022;-54
2022/12/05 00:57:44;;;;;;;63.23;26.17;;;;;;;10.29;100.00;101628.53;5014479;28;20058;-56
2022/12/05 01:00:09;;;;;;;70.00;25.83;;;;;;;10.27;100.00;101630.56;5014101;28;20276;-53
2022/12/05 01:02:35;;;;;;;55.58;24.77;;;;;;;9.80;100.00;101630.38;5013613;28;20054;-55
2022/12/05 01:05:01;;;;;;;60.73;25.67;;;;;;;9.81;100.00;101628.56;5014289;28;20041;-54
2022/12/05 01:07:26;;;;;;;47.47;20.10;;;;;;;10.02;100.00;101631.47;5014023;28;20034;-53
2022/12/05 01:09:52;;;;;;;62.63;26.63;;;;;;;9.82;100.00;101628.38;5013978;28;20217;-49
2022/12/05 01:12:17;;;;;;;61.63;26.63;;;;;;;10.02;100.00;101630.66;5014047;28;20030;-51
2022/12/05 01:14:43;;;;;;;65.17;25.87;;;;;;;10.12;100.00;101641.97;4997662;28;20038;-54
2022/12/05 01:17:09;;;;;;;64.30;25.20;;;;;;;10.69;100.00;101632.03;5014104;28;20095;-51
2022/12/05 01:19:34;;;;;;;61.47;25.47;;;;;;;10.04;100.00;101637.50;5014172;28;20061;-52
2022/12/05 01:21:59;;;;;;;63.30;25.10;;;;;;;9.87;100.00;101634.03;5013607;28;20034;-54
2022/12/05 01:24:26;;;;;;;63.00;24.60;;;;;;;9.80;100.00;101633.06;4997089;28;20039;-54
2022/12/05 01:26:52;;;;;;;;;;;;;;;9.57;100.00;101631.09;5013986;28;20038;-56
2022/12/05 01:29:19;;;;;;;55.13;22.97;;;;;;;9.56;100.00;101634.75;5013602;28;19987;-52
2022/12/05 01:31:46;;;;;;;57.15;24.85;;;;;;;9.69;100.00;101636.91;5012848;28;20038;-54
2022/12/05 01:34:13;;;;;;;70.28;28.00;;;;;;;9.69;100.00;101634.25;5013755;28;20061;-50
2022/12/05 01:36:40;;;;;;;70.95;26.80;;;;;;;9.89;100.00;101642.69;5014070;28;20022;-51
2022/12/05 01:39:07;;;;;;;65.85;26.77;;;;;;;9.97;100.00;101646.38;5013822;28;20038;-52
2022/12/05 01:41:35;;;;;;;69.28;26.70;;;;;;;9.82;100.00;101655.09;5012109;28;20034;-51
2022/12/05 01:44:23;;;;;;;61.00;26.02;;;;;;;9.90;100.00;101656.91;5013287;28;20034;-50
2022/12/05 01:46:51;;;;;;;57.40;24.10;;;;;;;9.45;100.00;101653.78;5012352;28;20038;-50
2022/12/05 01:49:22;;;;;;;55.28;24.35;;;;;;;10.00;100.00;101656.72;5013297;28;20034;-49
2022/12/05 01:51:52;;;;;;;58.92;23.73;;;;;;;10.01;100.00;101650.38;5013615;28;20065;-49
2022/12/05 01:54:20;;;;;;;54.58;24.00;;;;;;;9.94;100.00;101654.75;5011213;28;20038;-52
2022/12/05 01:56:51;;;;;;;58.25;25.38;;;;;;;9.78;100.00;101655.59;5013129;28;20034;-53
2022/12/05 01:59:20;;;;;;;56.17;24.77;;;;;;;10.20;100.00;101657.16;5013917;28;20034;-54
2022/12/05 02:01:46;;;;;;;60.42;24.40;;;;;;;10.28;100.00;101650.94;5013550;28;20030;-52
2022/12/05 02:04:12;;;;;;;57.80;24.17;;;;;;;10.32;100.00;101650.44;5013286;28;20034;-53
2022/12/05 02:06:37;;;;;;;57.47;25.48;;;;;;;10.43;100.00;101649.25;5012884;28;20045;-49
2022/12/05 02:09:03;;;;;;;59.72;24.08;;;;;;;9.87;100.00;101655.41;5013154;28;20045;-55
2022/12/05 02:11:31;;;;;;;53.30;23.42;;;;;;;9.88;100.00;101654.41;5013513;28;20115;-53
2022/12/05 02:14:28;;;;;;;61.70;25.42;;;;;;;10.31;100.00;101659.47;5011571;28;20034;-51
2022/12/05 02:17:07;;;;;;;61.75;25.02;;;;;;;10.16;100.00;101654.00;5013098;28;20043;-49
2022/12/05 02:19:50;;;;;;;57.72;24.17;;;;;;;9.92;100.00;101648.69;5010711;28;20042;-51
2022/12/05 02:22:53;;;;;;;52.78;22.70;;;;;;;10.02;100.00;101660.06;5012146;28;20038;-55
2022/12/05 02:25:35;;;;;;;51.72;23.58;;;;;;;9.60;100.00;101660.13;5011560;28;20043;-51
2022/12/05 02:28:25;;;;;;;58.80;23.92;;;;;;;10.07;100.00;101652.34;5012926;28;20053;-55
2022/12/05 02:30:58;;;;;;;56.78;24.58;;;;;;;9.82;100.00;101651.59;4999266;28;20039;-54
2022/12/05 02:33:45;;;;;;;59.03;24.83;;;;;;;10.55;100.00;101659.53;5000703;28;20035;-51
2022/12/05 02:36:37;;;;;;;55.20;24.48;;;;;;;10.11;100.00;101653.66;4995435;28;20054;-49
2022/12/05 02:39:06;;;;;;;53.08;22.80;;;;;;;10.28;100.00;101656.28;5000831;28;20070;-52
2022/12/05 02:41:38;;;;;;;57.67;23.92;;;;;;;10.18;100.00;101656.47;4999301;28;20030;-49
2022/12/05 02:44:11;;;;;;;55.85;23.27;;;;;;;9.95;100.00;101651.88;4998648;28;20049;-51
2022/12/05 02:46:39;;;;;;;57.17;25.05;;;;;;;10.03;100.00;101657.22;4981778;28;20065;-50
2022/12/05 02:49:09;;;;;;;59.78;24.23;;;;;;;10.18;100.00;101654.66;4999490;28;20031;-50
2022/12/05 02:51:42;;;;;;;55.88;23.10;;;;;;;10.23;100.00;101650.63;5001283;28;20035;-48
2022/12/05 02:54:13;;;;;;;60.28;25.38;;;;;;;10.65;100.00;101654.81;4997661;28;20033;-54
2022/12/05 02:56:42;;;;;;;54.15;23.48;;;;;;;10.48;100.00;101659.38;4998499;28;20099;-53
2022/12/05 02:59:08;;;;;;;55.15;24.35;;;;;;;9.69;100.00;101655.59;4996103;28;20050;-51
2022/12/05 03:01:34;;;;;;;61.13;26.27;;;;;;;10.16;100.00;101655.81;4999711;28;20042;-50
2022/12/05 03:04:02;;;;;;;62.07;24.73;;;;;;;10.22;100.00;101662.34;4999945;28;20035;-54
2022/12/05 03:06:38;;;;;;;56.53;22.90;;;;;;;10.17;100.00;101661.00;5001644;28;20050;-51
2022/12/05 03:09:12;;;;;;;52.28;23.23;;;;;;;9.94;100.00;101657.41;4995796;28;20047;-49
2022/12/05 03:11:47;;;;;;;54.60;24.63;;;;;;;9.85;100.00;101654.75;4998080;28;20034;-48
2022/12/05 03:14:20;;;;;;;54.70;23.50;;;;;;;10.02;100.00;101647.50;4996656;28;20031;-51
2022/12/05 03:16:50;;;;;;;56.60;25.10;;;;;;;10.30;100.00;101656.94;5000559;28;20045;-47
2022/12/05 03:19:54;;;;;;;57.30;24.20;;;;;;;10.40;100.00;101654.06;5002779;28;20129;-52
2022/12/05 03:22:31;;;;;;;53.08;24.10;;;;;;;10.56;100.00;101662.03;5001687;28;20099;-50
2022/12/05 03:24:58;;;;;;;53.88;23.25;;;;;;;10.58;100.00;101656.50;4994611;28;20065;-51
2022/12/05 03:27:36;;;;;;;62.47;23.75;;;;;;;10.82;100.00;101662.72;5007435;28;20041;-53
2022/12/05 03:30:09;;;;;;;55.08;24.17;;;;;;;10.45;100.00;101663.25;5006005;28;20064;-52
2022/12/05 03:32:48;;;;;;;55.20;24.23;;;;;;;10.37;100.00;101665.94;5015097;28;20026;-50
2022/12/05 03:35:34;;;;;;;61.20;26.08;;;;;;;10.46;100.00;101662.25;5014460;28;20042;-53
2022/12/05 03:38:20;;;;;;;53.58;23.27;;;;;;;10.74;100.00;101667.13;5014920;28;20034;-51
2022/12/05 03:40:52;;;;;;;52.10;23.42;;;;;;;10.63;100.00;101675.56;5015321;28;20040;-50
2022/12/05 03:43:28;;;;;;;59.22;24.30;;;;;;;10.54;100.00;101672.09;5015490;28;20038;-50
2022/12/05 03:46:04;;;;;;;60.47;23.92;;;;;;;10.73;100.00;101670.81;5014574;28;20046;-52
2022/12/05 03:48:42;;;;;;;59.15;23.33;;;;;;;10.26;100.00;101669.00;5013676;28;20042;-50
2022/12/05 03:51:12;;;;;;;55.35;23.75;;;;;;;9.92;100.00;101664.75;5014640;28;20081;-55
2022/12/05 03:53:55;;;;;;;59.42;24.50;;;;;;;10.16;100.00;101663.84;5015893;28;20039;-53
2022/12/05 03:56:26;;;;;;;56.63;23.08;;;;;;;9.99;100.00;101673.75;5015377;28;20041;-48
2022/12/05 03:59:07;;;;;;;55.55;24.40;;;;;;;10.25;100.00;101672.69;5011879;28;20413;-52
2022/12/05 04:01:35;;;;;;;62.28;25.48;;;;;;;10.92;100.00;101668.69;5015808;28;20123;-53
2022/12/05 04:04:13;;;;;;;58.10;25.25;;;;;;;10.58;100.00;101677.91;5010547;28;20037;-51
2022/12/05 04:06:41;;;;;;;55.10;23.40;;;;;;;10.07;100.00;101668.38;5015320;28;20106;-56
2022/12/05 04:09:16;;;;;;;57.13;23.98;;;;;;;9.84;100.00;101677.13;5013836;28;20030;-50
2022/12/05 04:11:50;;;;;;;61.53;25.17;;;;;;;9.83;100.00;101670.09;5011977;28;20049;-54
2022/12/05 04:14:21;;;;;;;57.53;23.88;;;;;;;10.07;100.00;101676.41;5014629;28;20030;-55
2022/12/05 04:17:04;;;;;;;60.13;26.33;;;;;;;10.20;100.00;101678.53;5012656;28;20062;-53
2022/12/05 04:22:26;;;;;;;59.67;23.92;;;;;;;10.31;100.00;101678.16;5014589;28;20046;-54
2022/12/05 04:27:45;;;;;;;53.97;23.58;;;;;;;10.40;100.00;101676.34;5014818;28;20027;-54
2022/12/05 04:30:20;;;;;;;55.90;24.23;;;;;;;10.56;100.00;101680.75;5013114;28;20050;-54
2022/12/05 04:33:05;;;;;;;57.22;24.73;;;;;;;10.38;100.00;101680.16;4998028;28;20030;-56
2022/12/05 04:35:40;;;;;;;55.42;23.50;;;;;;;10.54;100.00;101679.25;5015023;28;20046;-52
2022/12/05 04:38:13;;;;;;;57.85;25.63;;;;;;;9.87;100.00;101675.97;5011925;28;20053;-49
2022/12/05 04:40:45;;;;;;;57.08;23.25;;;;;;;10.36;100.00;101674.97;5014461;28;20030;-49
2022/12/05 04:43:13;;;;;;;53.53;22.85;;;;;;;10.30;100.00;101676.50;5014645;28;20066;-53
2022/12/05 04:45:40;;;;;;;60.03;23.45;;;;;;;10.23;100.00;101672.00;5010445;28;20034;-52
2022/12/05 04:48:09;;;;;;;;;;;;;;;11.09;100.00;101685.47;5014878;28;20038;-53
2022/12/05 04:50:36;;;;;;;56.08;26.00;;;;;;;11.13;100.00;101680.59;5014412;28;19917;-52
2022/12/05 04:53:02;;;;;;;53.20;24.10;;;;;;;10.79;100.00;101681.81;5012116;28;20102;-50
2022/12/05 04:55:32;;;;;;;59.97;24.42;;;;;;;10.32;100.00;101677.16;5012709;28;20022;-54
2022/12/05 04:58:20;;;;;;;58.90;24.98;;;;;;;9.89;100.00;101674.75;5013514;28;20034;-51
2022/12/05 05:00:51;;;;;;;;;;;;;;;10.04;100.00;101669.56;4997870;28;20045;-50
2022/12/05 05:03:28;;;;;;;52.40;22.00;;;;;;;9.96;100.00;101674.91;5014322;28;19913;-51
2022/12/05 05:05:55;;;;;;;53.38;23.30;;;;;;;10.00;100.00;101678.91;5012789;28;20066;-50
2022/12/05 05:08:27;;;;;;;59.95;23.80;;;;;;;10.99;100.00;101674.19;5014074;28;20026;-55
2022/12/05 05:11:05;;;;;;;51.78;23.80;;;;;;;10.46;100.00;101678.31;5014525;28;20126;-48
2022/12/05 05:13:31;;;;;;;61.20;25.05;;;;;;;10.51;100.00;101684.97;5012404;28;20058;-52
2022/12/05 05:15:56;;;;;;;50.67;21.77;;;;;;;10.93;100.00;101681.06;5013547;28;20049;-54
2022/12/05 05:18:22;;;;;;;52.80;23.33;;;;;;;10.92;100.00;101687.44;5014204;28;20046;-52
2022/12/05 05:20:47;;;;;;;52.83;23.17;;;;;;;11.03;100.00;101688.88;5013865;28;20042;-55
2022/12/05 05:23:13;;;;;;;54.27;23.70;;;;;;;10.90;100.00;101686.78;5014210;28;20041;-53
2022/12/05 05:25:39;;;;;;;57.35;24.10;;;;;;;10.80;100.00;101687.00;5013847;28;20094;-51
2022/12/05 05:28:05;;;;;;;50.13;23.10;;;;;;;10.63;100.00;101690.75;5014092;28;20138;-53
2022/12/05 05:30:31;;;;;;;58.88;23.45;;;;;;;10.75;100.00;101695.53;5013666;28;20054;-51
2022/12/05 05:32:58;;;;;;;40.97;17.53;;;;;;;10.40;100.00;101695.06;4996861;28;20069;-51
2022/12/05 05:35:24;;;;;;;50.83;22.77;;;;;;;10.65;100.00;101696.78;5013859;28;20037;-48
2022/12/05 05:37:49;;;;;;;54.00;23.60;;;;;;;10.85;100.00;101699.84;4996486;28;20031;-50
2022/12/05 05:40:15;;;;;;;60.03;23.47;;;;;;;10.93;100.00;101699.81;5013883;28;20053;-52
2022/12/05 05:42:45;;;;;;;50.90;22.53;;;;;;;10.65;100.00;101689.59;5013618;28;20308;-51
2022/12/05 05:45:12;;;;;;;51.47;22.90;;;;;;;10.65;100.00;101688.75;5012630;28;20292;-54
2022/12/05 05:47:37;;;;;;;50.90;22.90;;;;;;;10.61;100.00;101693.63;5013015;28;20038;-51
2022/12/05 05:50:05;;;;;;;52.47;23.65;;;;;;;10.86;100.00;101693.50;5012950;28;20064;-51
2022/12/05 05:52:35;;;;;;;50.88;22.40;;;;;;;10.95;100.00;101695.09;5013355;28;20040;-51
2022/12/05 05:55:01;;;;;;;47.65;22.95;;;;;;;10.97;100.00;101693.06;5011382;28;20030;-52
2022/12/05 05:57:26;;;;;;;;;;;;;;;11.17;100.00;101703.31;4997396;28;20116;-50
2022/12/05 05:59:52;;;;;;;47.87;20.93;;;;;;;10.94;100.00;101692.59;5013017;28;19938;-51
2022/12/05 06:02:18;;;;;;;50.40;22.57;;;;;;;10.95;100.00;101695.09;5013134;28;20042;-50
2022/12/05 06:04:44;;;;;;;53.63;22.33;;;;;;;10.92;100.00;101698.13;5013012;28;20042;-53
2022/12/05 06:07:09;;;;;;;48.70;20.97;;;;;;;11.07;100.00;101697.34;5013153;28;20291;-51
2022/12/05 06:09:35;;;;;;;49.67;20.90;;;;;;;11.25;100.00;101700.56;5013246;28;20038;-52
2022/12/05 06:12:00;;;;;;;47.37;21.70;;;;;;;11.11;100.00;101694.16;5013582;28;20089;-49
2022/12/05 06:14:26;;;;;;;48.07;22.03;;;;;;;11.12;100.00;101705.72;5013483;28;20264;-53
2022/12/05 06:16:51;;;;;;;48.37;20.50;;;;;;;11.05;100.00;101700.22;5012653;28;20057;-49
2022/12/05 06:19:16;;;;;;;46.53;21.33;;;;;;;10.92;100.00;101698.13;5012463;28;20101;-51
2022/12/05 06:21:42;;;;;;;50.15;21.38;;;;;;;10.79;100.00;101695.19;5013230;28;20046;-52
2022/12/05 06:24:08;;;;;;;37.17;15.83;;;;;;;11.06;100.00;101696.53;5013187;28;20030;-54
2022/12/05 06:26:33;;;;;;;48.20;21.55;;;;;;;11.07;100.00;101698.19;5010986;28;20035;-50
2022/12/05 06:28:58;;;;;;;49.87;20.97;;;;;;;10.85;100.00;101699.84;5012677;28;20057;-52
2022/12/05 06:31:30;;;;;;;43.05;20.35;;;;;;;11.16;100.00;101707.84;5011183;28;20073;-53
2022/12/05 06:34:00;;;;;;;56.25;22.90;;;;;;;11.08;100.00;101704.41;5010757;28;20046;-53
2022/12/05 06:36:27;;;;;;;44.45;21.25;;;;;;;11.11;100.00;101709.41;5013187;28;20046;-53
2022/12/05 06:38:53;;;;;;;44.88;20.95;;;;;;;11.14;100.00;101707.19;5011075;28;20054;-52
2022/12/05 06:41:19;;;;;;;42.33;20.73;;;;;;;11.27;100.00;101713.81;5012833;28;20027;-50
2022/12/05 06:43:45;;;;;;;49.70;21.85;;;;;;;11.17;100.00;101719.38;5012691;28;20278;-48
2022/12/05 06:46:12;;;;;;;48.85;21.75;;;;;;;11.03;100.00;101713.78;5010364;28;20110;-52
2022/12/05 06:48:38;;;;;;;50.30;21.38;;;;;;;11.21;100.00;101718.03;5013244;28;20065;-51
2022/12/05 06:51:05;;;;;;;43.10;20.97;;;;;;;11.49;100.00;101712.13;5012428;28;20034;-53
2022/12/05 06:53:31;;;;;;;45.92;22.02;;;;;;;11.61;100.00;101720.56;5012453;28;20042;-51
2022/12/05 06:55:58;;;;;;;47.93;21.03;;;;;;;11.09;100.00;101722.94;5012395;28;20034;-55
2022/12/05 06:58:25;;;;;;;46.75;21.10;;;;;;;11.62;100.00;101722.22;5012707;28;20026;-54
2022/12/05 07:03:36;;;;;;;45.22;21.33;;;;;;;11.94;100.00;101731.00;5014987;28;20034;-54
2022/12/05 07:06:03;;;;;;;47.90;21.92;;;;;;;11.84;100.00;101733.94;5015669;28;20069;-52
2022/12/05 07:08:29;;;;;;;44.70;22.15;;;;;;;12.28;100.00;101736.88;5016380;28;20103;-51
2022/12/05 07:10:55;;;;;;;47.57;20.90;;;;;;;11.10;100.00;101740.69;5016024;28;20035;-54
2022/12/05 07:13:20;;;;;;;47.53;22.00;;;;;;;11.42;100.00;101735.28;5016010;28;20034;-51
2022/12/05 07:15:47;;;;;;;43.38;21.23;;;;;;;12.02;100.00;101733.59;5015459;28;20030;-50
2022/12/05 07:18:14;;;;;;;45.65;21.48;;;;;;;11.62;100.00;101735.63;5016180;28;20093;-56
2022/12/05 07:20:40;;;;;;;39.78;20.85;;;;;;;12.23;100.00;101729.38;5015997;28;20042;-51
2022/12/05 07:23:06;;;;;;;47.77;21.87;;;;;;;11.93;100.00;101739.19;5016069;28;20094;-49
2022/12/05 07:25:31;;;;;;;43.90;20.30;;;;;;;12.09;100.00;101736.41;5013604;28;20034;-52
2022/12/05 07:27:57;;;;;;;45.10;21.80;;;;;;;12.35;100.00;101736.97;5015875;28;20379;-50
2022/12/05 07:30:22;;;;;;;47.43;21.20;;;;;;;12.59;100.00;101743.88;5015149;28;20093;-52
2022/12/05 07:32:48;;;;;;;44.47;21.13;;;;;;;12.40;100.00;101739.94;5016101;28;20046;-52
2022/12/05 07:35:13;;;;;;;51.20;22.13;;;;;;;12.31;100.00;101741.88;5016041;28;20026;-52
2022/12/05 07:37:38;;;;;;;41.20;19.87;;;;;;;12.54;100.00;101752.47;5016552;28;20069;-55
2022/12/05 07:40:05;;;;;;;44.53;21.77;;;;;;;12.52;100.00;101748.34;5016448;28;20050;-52
2022/12/05 07:42:31;;;;;;;44.67;21.27;;;;;;;12.42;100.00;101748.63;5013471;28;20097;-52
2022/12/05 07:44:56;;;;;;;44.33;20.87;;;;;;;12.34;100.00;101741.50;5014823;28;20041;-50
2022/12/05 07:47:22;;;;;;;45.40;23.10;;;;;;;11.72;100.00;101746.09;4998744;28;20038;-52
2022/12/05 07:49:47;;;;;;;47.43;22.80;;;;;;;12.35;100.00;101747.72;5016326;28;20340;-56
2022/12/05 07:52:13;;;;;;;40.93;20.73;;;;;;;11.43;100.00;101750.34;4999082;28;20073;-49
2022/12/05 07:54:38;;;;;;;42.67;21.63;;;;;;;10.23;100.00;101757.56;5016321;28;20033;-52
2022/12/05 07:57:03;;;;;;;45.53;21.30;;;;;;;9.56;100.00;101770.13;5015395;28;20615;-54
2022/12/05 07:59:29;;;;;;;43.17;20.50;;;;;;;12.19;100.00;101768.31;5015968;28;20097;-51
2022/12/05 08:01:54;;;;;;;43.47;20.23;;;;;;;12.41;100.00;101763.88;5015881;28;20041;-52
2022/12/05 08:04:20;;;;;;;43.70;20.60;;;;;;;12.39;100.00;101765.09;5015352;28;20094;-53
2022/12/05 08:06:45;;;;;;;42.87;21.03;;;;;;;12.91;100.00;101772.16;4999025;28;20045;-53
2022/12/05 08:09:11;;;;;;;44.43;22.50;;;;;;;12.74;100.00;101768.00;5015995;28;20022;-53
2022/12/05 08:11:37;;;;;;;47.72;20.20;;;;;;;13.70;100.00;101779.63;5014703;28;20041;-54
2022/12/05 08:14:05;;;;;;;47.92;21.83;;;;;;;13.69;100.00;101775.28;5015961;28;20034;-54
2022/12/05 08:16:31;;;;;;;48.38;21.17;;;;;;;12.59;100.00;101776.94;5011263;28;20055;-53
2022/12/05 08:18:59;;;;;;;42.40;20.88;;;;;;;12.50;100.00;101778.03;5014723;28;20036;-52
2022/12/05 08:21:25;;;;;;;44.10;20.58;;;;;;;10.26;100.00;101775.94;5013669;28;20031;-55
2022/12/05 08:23:51;;;;;;;46.90;21.93;;;;;;;9.54;100.00;101778.31;5014875;28;20159;-54
2022/12/05 08:26:19;;;;;;;47.20;21.15;;;;;;;9.42;100.00;101775.13;5013132;28;20101;-56
2022/12/05 08:28:50;;;;;;;42.92;20.67;;;;;;;9.86;100.00;101773.16;5010879;28;20059;-49
2022/12/05 08:31:17;;;;;;;41.33;20.55;;;;;;;12.06;100.00;101782.34;4991688;28;20053;-53
2022/12/05 08:33:43;;;;;;;45.60;21.00;;;;;;;12.16;100.00;101780.22;4993344;28;20085;-55
2022/12/05 08:36:11;;;;;;;28.10;14.48;;;;;;;10.43;100.00;101779.44;4994450;28;20035;-54
2022/12/05 08:38:38;;;;;;;37.80;19.90;;;;;;;9.72;100.00;101778.13;4998838;28;20070;-55
2022/12/05 08:41:06;;;;;;;45.30;20.17;;;;;;;9.54;100.00;101788.13;4998343;28;20058;-53
2022/12/05 08:43:32;;;;;;;45.45;20.75;;;;;;;9.48;100.00;101795.00;4996844;28;20054;-56
2022/12/05 08:45:58;;;;;;;;;;;;;;;9.57;100.00;101793.16;4991877;28;20042;-54
2022/12/05 08:48:24;;;;;;;39.27;19.50;;;;;;;9.55;100.00;101789.81;4998580;28;19966;-54
2022/12/05 08:50:50;;;;;;;45.50;19.48;;;;;;;9.58;100.00;101800.19;4995221;28;20049;-50
2022/12/05 08:53:16;;;;;;;43.72;20.02;;;;;;;9.57;100.00;101791.31;4995983;28;20030;-51
2022/12/05 08:55:44;;;;;;;37.55;19.35;;;;;;;9.64;100.00;101799.50;4994730;28;20094;-53
2022/12/05 08:58:10;;;;;;;46.53;21.08;;;;;;;10.80;100.00;101799.38;4998091;28;20035;-49
2022/12/05 09:00:36;;;;;;;38.72;19.92;;;;;;;9.69;100.00;101807.03;4995290;28;20042;-52
2022/12/05 09:03:01;;;;;;;43.70;19.77;;;;;;;9.68;100.00;101806.19;4993730;28;20067;-54
2022/12/05 09:05:27;;;;;;;40.70;20.07;;;;;;;10.88;100.00;101801.19;4999913;28;20035;-50
2022/12/05 09:07:52;;;;;;;39.80;18.87;;;;;;;11.41;100.00;101808.59;4993603;28;20280;-55
2022/12/05 09:10:18;;;;;;;40.33;20.42;;;;;;;10.27;100.00;101801.66;4994328;28;20035;-53
2022/12/05 09:12:44;;;;;;;47.30;20.97;;;;;;;9.83;100.00;101802.88;4993786;28;20054;-54
2022/12/05 09:15:11;;;;;;;51.10;21.33;;;;;;;9.76;100.00;101810.72;4981461;28;20027;-54
2022/12/05 09:17:37;;;;;;;47.10;18.40;;;;;;;9.72;100.00;101815.53;4994898;28;20093;-53
2022/12/05 09:20:07;;;;;;;44.10;19.67;;;;;;;9.62;100.00;101814.88;4995651;28;20040;-53
2022/12/05 09:22:34;;;;;;;46.22;21.33;;;;;;;9.71;100.00;101816.53;4999414;28;20039;-53
2022/12/05 09:24:59;;;;;;;38.03;19.45;;;;;;;9.73;100.00;101816.38;4996065;28;20062;-55
2022/12/05 09:27:27;;;;;;;42.23;20.97;;;;;;;9.75;100.00;101819.72;5001836;28;20058;-55
2022/12/05 09:29:53;;;;;;;44.92;21.63;;;;;;;9.72;100.00;101817.38;5009359;28;20050;-55
2022/12/05 09:32:18;;;;;;;39.97;19.13;;;;;;;9.68;100.00;101824.88;5007427;28;20122;-54
2022/12/05 09:34:44;;;;;;;39.08;20.17;;;;;;;9.71;100.00;101823.72;5009924;28;20026;-52
2022/12/05 09:37:10;;;;;;;41.00;20.03;;;;;;;9.69;100.00;101820.41;5011980;28;20058;-55
2022/12/05 09:39:36;;;;;;;42.73;21.00;;;;;;;9.73;100.00;101829.75;5013549;28;20049;-53
2022/12/05 09:42:20;;;;;;;49.75;22.80;;;;;;;9.73;100.00;101835.91;5012890;28;20306;-52
2022/12/05 09:44:52;;;;;;;54.35;19.52;;;;;;;9.74;100.00;101831.41;5010838;28;20038;-52
2022/12/05 09:47:37;;;;;;;45.08;18.95;;;;;;;9.80;100.00;101835.25;5009731;28;20065;-53
2022/12/05 09:50:27;;;;;;;44.70;20.10;;;;;;;9.71;100.00;101837.09;5010079;28;20102;-52
2022/12/05 09:53:01;;;;;;;43.20;20.65;;;;;;;9.71;100.00;101834.41;5012102;28;20042;-54
2022/12/05 09:56:01;;;;;;;41.97;20.50;;;;;;;9.61;100.00;101832.72;5012165;28;20030;-54
2022/12/05 09:58:37;;;;;;;45.97;21.45;;;;;;;9.73;100.00;101837.75;5010804;28;20041;-52
2022/12/05 10:01:12;;;;;;;42.67;20.48;;;;;;;9.74;100.00;101836.75;5010804;28;20034;-55
2022/12/05 10:03:44;;;;;;;51.05;22.63;;;;;;;9.72;100.00;101833.41;5010609;28;20026;-52
2022/12/05 10:06:16;;;;;;;46.58;21.55;;;;;;;9.88;100.00;101841.44;5011457;28;20065;-55
2022/12/05 10:08:52;;;;;;;49.22;21.40;;;;;;;9.85;100.00;101836.41;5011401;28;20050;-56
2022/12/05 10:11:49;;;;;;;47.47;20.80;;;;;;;9.88;100.00;101841.44;5010789;28;20113;-52
2022/12/05 10:14:43;;;;;;;45.65;21.02;;;;;;;9.89;100.00;101839.59;5011056;28;20035;-54
2022/12/05 10:17:27;;;;;;;39.75;20.33;;;;;;;9.84;100.00;101842.75;5010678;28;20030;-55
2022/12/05 10:19:58;;;;;;;46.28;20.42;;;;;;;10.03;100.00;101836.28;5010833;28;20057;-56
2022/12/05 10:22:29;;;;;;;47.35;20.33;;;;;;;11.37;100.00;101844.78;5011700;28;20042;-56
2022/12/05 10:25:00;;;;;;;43.97;21.30;;;;;;;11.60;100.00;101840.28;5010517;28;20039;-55
2022/12/05 10:27:32;;;;;;;40.55;19.90;;;;;;;12.06;100.00;101835.97;5012084;28;20041;-54
2022/12/05 10:30:04;;;;;;;42.38;22.20;;;;;;;11.87;100.00;101832.72;5012189;28;20047;-55
2022/12/05 10:32:45;;;;;;;43.13;19.80;;;;;;;12.17;100.00;101832.84;4996277;28;20077;-55
2022/12/05 10:35:23;;;;;;;41.45;18.45;;;;;;;12.31;100.00;101833.06;5013981;28;20094;-55
2022/12/05 10:37:52;;;;;;;43.13;19.65;;;;;;;12.50;100.00;101831.69;5015675;28;20053;-52
2022/12/05 10:40:18;;;;;;;46.17;19.95;;;;;;;12.44;100.00;101830.56;5015474;28;20035;-54
2022/12/05 10:42:45;;;;;;;42.97;19.10;;;;;;;10.71;100.00;101821.81;5015190;28;20110;-53
2022/12/05 10:45:21;;;;;;;46.13;22.00;;;;;;;10.05;100.00;101820.06;5015592;28;20034;-52
2022/12/05 10:47:48;;;;;;;43.70;19.98;;;;;;;9.95;100.00;101825.56;5015089;28;20084;-52
2022/12/05 10:50:36;;;;;;;50.55;21.33;;;;;;;10.02;100.00;101820.41;5015367;28;20034;-53
2022/12/05 10:53:02;;;;;;;;;;;;;;;9.95;100.00;101816.72;5015170;28;20050;-52
2022/12/05 10:55:35;;;;;;;44.88;19.02;;;;;;;9.95;100.00;101825.56;5016845;28;19918;-52
2022/12/05 10:58:14;;;;;;;50.33;21.17;;;;;;;9.99;100.00;101816.22;5017158;28;20497;-52
2022/12/05 11:00:45;;;;;;;54.85;21.27;;;;;;;10.09;100.00;101817.91;5015810;28;20045;-53
2022/12/05 11:03:33;;;;;;;51.95;21.25;;;;;;;10.08;100.00;101819.72;5014623;28;20390;-52
2022/12/05 11:06:01;;;;;;;46.80;20.40;;;;;;;10.15;100.00;101817.22;5016492;28;20054;-54
2022/12/05 11:08:32;;;;;;;50.10;22.73;;;;;;;10.08;100.00;101819.72;5016746;28;20030;-53
2022/12/05 11:11:04;;;;;;;48.67;21.80;;;;;;;10.18;100.00;101820.41;5015502;28;20057;-54
2022/12/05 11:13:31;;;;;;;46.85;20.70;;;;;;;10.12;100.00;101813.03;5014172;28;20045;-54
2022/12/05 11:15:57;;;;;;;53.97;22.27;;;;;;;10.18;100.00;101808.84;5016462;28;20023;-52
2022/12/05 11:18:32;;;;;;;46.13;21.23;;;;;;;10.18;100.00;101811.53;5014381;28;20064;-51
2022/12/05 11:21:12;;;;;;;51.63;21.73;;;;;;;10.24;100.00;101812.69;5015143;28;20042;-55
2022/12/05 11:23:39;;;;;;;44.72;20.98;;;;;;;10.19;100.00;101810.53;5014831;28;20054;-52
2022/12/05 11:26:16;;;;;;;45.47;20.63;;;;;;;10.20;100.00;101809.50;5016382;28;20110;-53
2022/12/05 11:28:41;;;;;;;50.67;21.67;;;;;;;10.26;100.00;101818.72;5014792;28;20039;-54